createdAt,value
2022-09-20T00:00:53.876Z,51.216187
2022-09-20T00:01:53.798Z,51.216167
2022-09-20T00:02:53.797Z,51.216198
2022-09-20T00:03:53.774Z,51.216213
2022-09-20T00:04:53.808Z,51.216145
2022-09-20T00:05:53.769Z,51.215954
2022-09-20T00:06:53.762Z,51.216064
2022-09-20T00:07:53.746Z,51.216084
2022-09-20T00:08:53.769Z,51.216091
2022-09-20T00:09:53.753Z,51.216125
2022-09-20T00:10:53.736Z,51.216064
2022-09-20T00:11:53.728Z,51.216125
2022-09-20T00:12:53.717Z,51.216114
2022-09-20T00:13:53.831Z,51.216148
2022-09-20T00:14:53.717Z,51.216133
2022-09-20T00:15:53.694Z,51.216034
2022-09-20T00:16:53.808Z,51.215981
2022-09-20T00:17:53.673Z,51.215824
2022-09-20T00:18:54.682Z,51.215824
2022-09-20T00:19:53.660Z,51.215839
2022-09-20T00:20:53.655Z,51.215919
2022-09-20T00:21:53.679Z,51.216080
2022-09-20T00:22:53.638Z,51.216057
2022-09-20T00:23:53.729Z,51.216339
2022-09-20T00:24:53.635Z,51.216221
2022-09-20T00:25:53.635Z,51.216164
2022-09-20T00:26:53.637Z,51.216187
2022-09-20T00:27:53.619Z,51.216145
2022-09-20T00:28:53.724Z,51.216064
2022-09-20T00:29:53.604Z,51.216057
2022-09-20T00:30:53.608Z,51.216160
2022-09-20T00:31:53.646Z,51.216145
2022-09-20T00:32:53.596Z,51.216106
2022-09-20T00:33:53.583Z,51.216141
2022-09-20T00:34:53.571Z,51.216206
2022-09-20T00:35:53.562Z,51.216103
2022-09-20T00:36:53.559Z,51.216045
2022-09-20T00:37:53.573Z,51.216068
2022-09-20T00:38:53.543Z,51.216103
2022-09-20T00:39:53.546Z,51.216034
2022-09-20T00:40:53.534Z,51.216148
2022-09-20T00:41:53.524Z,51.216118
2022-09-20T00:42:53.531Z,51.216190
2022-09-20T00:43:53.518Z,51.216187
2022-09-20T00:44:53.502Z,51.216179
2022-09-20T00:45:53.527Z,51.216194
2022-09-20T00:46:53.495Z,51.216171
2022-09-20T00:47:53.479Z,51.216179
2022-09-20T00:48:53.495Z,51.216156
2022-09-20T00:49:53.482Z,51.216167
2022-09-20T00:50:53.470Z,51.216148
2022-09-20T00:51:53.459Z,51.216198
2022-09-20T00:52:53.459Z,51.216183
2022-09-20T00:53:53.466Z,51.216091
2022-09-20T00:54:53.443Z,51.216099
2022-09-20T00:55:53.443Z,51.216091
2022-09-20T00:56:53.430Z,51.216099
2022-09-20T00:57:53.428Z,51.216095
2022-09-20T00:58:53.418Z,51.216129
2022-09-20T00:59:53.427Z,51.216133
2022-09-20T01:00:53.424Z,51.216125
2022-09-20T01:01:53.426Z,51.216156
2022-09-20T01:02:53.394Z,51.216160
2022-09-20T01:03:53.383Z,51.216110
2022-09-20T01:04:53.379Z,51.216019
2022-09-20T01:05:53.375Z,51.216118
2022-09-20T01:06:53.379Z,51.216122
2022-09-20T01:07:53.359Z,51.216064
2022-09-20T01:08:53.356Z,51.216091
2022-09-20T01:09:53.342Z,51.216095
2022-09-20T01:10:53.850Z,51.216091
2022-09-20T01:11:53.342Z,51.216133
2022-09-20T01:12:53.338Z,51.216084
2022-09-20T01:13:53.322Z,51.216087
2022-09-20T01:14:53.306Z,51.216087
2022-09-20T01:15:53.309Z,51.216137
2022-09-20T01:16:53.371Z,51.216232
2022-09-20T01:17:53.310Z,51.216152
2022-09-20T01:18:53.282Z,51.216106
2022-09-20T01:19:54.286Z,51.216183
2022-09-20T01:20:53.279Z,51.216164
2022-09-20T01:21:53.274Z,51.216290
2022-09-20T01:22:53.262Z,51.216228
2022-09-20T01:23:53.271Z,51.216217
2022-09-20T01:24:53.248Z,51.216125
2022-09-20T01:25:53.234Z,51.216057
2022-09-20T01:26:53.237Z,51.216095
2022-09-20T01:27:53.249Z,51.216118
2022-09-20T01:28:53.279Z,51.216087
2022-09-20T01:29:53.210Z,51.216087
2022-09-20T01:30:53.208Z,51.216133
2022-09-20T01:31:53.263Z,51.216045
2022-09-20T01:32:53.207Z,51.216064
2022-09-20T01:33:53.182Z,51.216091
2022-09-20T01:34:53.183Z,51.216114
2022-09-20T01:35:53.170Z,51.216011
2022-09-20T01:36:53.174Z,51.216118
2022-09-20T01:37:53.158Z,51.216137
2022-09-20T01:38:53.166Z,51.216160
2022-09-20T01:39:53.144Z,51.216122
2022-09-20T01:40:53.146Z,51.216049
2022-09-20T01:41:53.170Z,51.216045
2022-09-20T01:42:53.124Z,51.216034
2022-09-20T01:43:53.217Z,51.216049
2022-09-20T01:44:53.112Z,51.216053
2022-09-20T01:45:53.173Z,51.215942
2022-09-20T01:46:53.096Z,51.216061
2022-09-20T01:47:53.090Z,51.216274
2022-09-20T01:48:53.082Z,51.215740
2022-09-20T01:49:53.068Z,51.216194
2022-09-20T01:50:53.074Z,51.216125
2022-09-20T01:51:53.054Z,51.216007
2022-09-20T01:52:53.057Z,51.215988
2022-09-20T01:53:53.046Z,51.215996
2022-09-20T01:54:53.046Z,51.216175
2022-09-20T01:55:53.050Z,51.216129
2022-09-20T01:56:53.035Z,51.216305
2022-09-20T01:57:53.030Z,51.216103
2022-09-20T01:59:07.235Z,51.215992
2022-09-20T01:59:55.006Z,51.215782
2022-09-20T02:00:53.066Z,51.215694
2022-09-20T02:01:53.090Z,51.215542
2022-09-20T02:02:53.005Z,51.215843
2022-09-20T02:03:52.978Z,51.216106
2022-09-20T02:04:52.974Z,51.216316
2022-09-20T02:05:52.966Z,51.216228
2022-09-20T02:06:52.974Z,51.216007
2022-09-20T02:07:52.963Z,51.216087
2022-09-20T02:08:53.060Z,51.216179
2022-09-20T02:09:52.946Z,51.216011
2022-09-20T02:10:52.936Z,51.215553
2022-09-20T02:11:52.946Z,51.215492
2022-09-20T02:12:52.924Z,51.215820
2022-09-20T02:13:52.910Z,51.215916
2022-09-20T02:14:52.925Z,51.216148
2022-09-20T02:15:52.902Z,51.216045
2022-09-20T02:16:52.981Z,51.216053
2022-09-20T02:17:53.894Z,51.216026
2022-09-20T02:18:52.886Z,51.216080
2022-09-20T02:19:52.877Z,51.216137
2022-09-20T02:20:52.866Z,51.216202
2022-09-20T02:21:52.862Z,51.215946
2022-09-20T02:22:52.889Z,51.216206
2022-09-20T02:23:52.895Z,51.215946
2022-09-20T02:24:52.845Z,51.215889
2022-09-20T02:25:52.842Z,51.216095
2022-09-20T02:26:52.830Z,51.216125
2022-09-20T02:27:52.834Z,51.216351
2022-09-20T02:28:52.821Z,51.216263
2022-09-20T02:29:52.815Z,51.216228
2022-09-20T02:30:52.810Z,51.216084
2022-09-20T02:31:52.854Z,51.216282
2022-09-20T02:32:52.807Z,51.215904
2022-09-20T02:33:52.789Z,51.216061
2022-09-20T02:34:52.786Z,51.215893
2022-09-20T02:35:52.776Z,51.215946
2022-09-20T02:36:52.766Z,51.216022
2022-09-20T02:37:52.773Z,51.216049
2022-09-20T02:38:52.808Z,51.216080
2022-09-20T02:39:52.752Z,51.216076
2022-09-20T02:40:52.750Z,51.215683
2022-09-20T02:41:52.741Z,51.215305
2022-09-20T02:42:52.762Z,51.215446
2022-09-20T02:43:52.717Z,51.215485
2022-09-20T02:44:52.722Z,51.215954
2022-09-20T02:45:52.814Z,51.216068
2022-09-20T02:46:52.697Z,51.216145
2022-09-20T02:47:52.701Z,51.216267
2022-09-20T02:48:52.710Z,51.216434
2022-09-20T02:49:52.678Z,51.216339
2022-09-20T02:50:52.673Z,51.216267
2022-09-20T02:51:52.669Z,51.216480
2022-09-20T02:52:52.658Z,51.216431
2022-09-20T02:53:52.745Z,51.216362
2022-09-20T02:54:52.658Z,51.215908
2022-09-20T02:55:52.645Z,51.215588
2022-09-20T02:56:52.633Z,51.215511
2022-09-20T02:57:52.634Z,51.215218
2022-09-20T02:58:52.632Z,51.215267
2022-09-20T02:59:52.618Z,51.215332
2022-09-20T03:00:52.649Z,51.215725
2022-09-20T03:01:52.634Z,51.215893
2022-09-20T03:02:52.589Z,51.215946
2022-09-20T03:03:52.593Z,51.215809
2022-09-20T03:04:52.597Z,51.215679
2022-09-20T03:05:52.638Z,51.216022
2022-09-20T03:06:52.573Z,51.216171
2022-09-20T03:07:52.565Z,51.216572
2022-09-20T03:08:52.598Z,51.216587
2022-09-20T03:09:52.549Z,51.216282
2022-09-20T03:10:52.562Z,51.216015
2022-09-20T03:11:52.537Z,51.216091
2022-09-20T03:12:52.525Z,51.216053
2022-09-20T03:13:52.525Z,51.216171
2022-09-20T03:14:52.521Z,51.216198
2022-09-20T03:15:52.510Z,51.216114
2022-09-20T03:16:52.785Z,51.216110
2022-09-20T03:17:52.493Z,51.216118
2022-09-20T03:18:52.485Z,51.216103
2022-09-20T03:19:52.484Z,51.216064
2022-09-20T03:20:52.486Z,51.216110
2022-09-20T03:21:52.481Z,51.216057
2022-09-20T03:22:52.477Z,51.216137
2022-09-20T03:23:52.490Z,51.216091
2022-09-20T03:24:52.456Z,51.216061
2022-09-20T03:25:52.445Z,51.216049
2022-09-20T03:26:52.445Z,51.216026
2022-09-20T03:27:52.441Z,51.215992
2022-09-20T03:28:52.437Z,51.216042
2022-09-20T03:29:52.414Z,51.216282
2022-09-20T03:30:52.403Z,51.216129
2022-09-20T03:31:52.487Z,51.216110
2022-09-20T03:32:52.397Z,51.216034
2022-09-20T03:33:52.413Z,51.215851
2022-09-20T03:34:52.389Z,51.215824
2022-09-20T03:35:52.382Z,51.215836
2022-09-20T03:36:52.377Z,51.215851
2022-09-20T03:37:52.369Z,51.215729
2022-09-20T03:38:52.463Z,51.215706
2022-09-20T03:39:52.353Z,51.215916
2022-09-20T03:40:53.323Z,51.216099
2022-09-20T03:41:52.346Z,51.216095
2022-09-20T03:42:52.325Z,51.216129
2022-09-20T03:43:52.335Z,51.216202
2022-09-20T03:44:52.342Z,51.216225
2022-09-20T03:45:52.369Z,51.216232
2022-09-20T03:46:52.299Z,51.216156
2022-09-20T03:47:52.305Z,51.216061
2022-09-20T03:48:52.284Z,51.216038
2022-09-20T03:49:53.294Z,51.216030
2022-09-20T03:50:52.282Z,51.216061
2022-09-20T03:51:52.282Z,51.216053
2022-09-20T03:52:52.273Z,51.216114
2022-09-20T03:53:52.262Z,51.216007
2022-09-20T03:54:52.258Z,51.215954
2022-09-20T03:55:52.270Z,51.216099
2022-09-20T03:56:52.239Z,51.216061
2022-09-20T03:57:52.233Z,51.216026
2022-09-20T03:58:52.233Z,51.215931
2022-09-20T03:59:52.229Z,51.215782
2022-09-20T04:00:52.281Z,51.215649
2022-09-20T04:01:52.268Z,51.215763
2022-09-20T04:02:52.205Z,51.215809
2022-09-20T04:03:52.273Z,51.216053
2022-09-20T04:04:52.193Z,51.216080
2022-09-20T04:05:52.191Z,51.216061
2022-09-20T04:06:52.767Z,51.216202
2022-09-20T04:07:52.173Z,51.216301
2022-09-20T04:08:52.197Z,51.216019
2022-09-20T04:09:52.163Z,51.215794
2022-09-20T04:10:52.145Z,51.215988
2022-09-20T04:11:52.154Z,51.216148
2022-09-20T04:12:52.141Z,51.216240
2022-09-20T04:13:52.129Z,51.216248
2022-09-20T04:14:52.176Z,51.216301
2022-09-20T04:15:52.116Z,51.216072
2022-09-20T04:16:52.157Z,51.215992
2022-09-20T04:17:52.115Z,51.216049
2022-09-20T04:18:52.124Z,51.216084
2022-09-20T04:19:52.089Z,51.216019
2022-09-20T04:20:52.078Z,51.216022
2022-09-20T04:21:52.073Z,51.215988
2022-09-20T04:22:52.070Z,51.215973
2022-09-20T04:23:52.074Z,51.216129
2022-09-20T04:24:52.063Z,51.216244
2022-09-20T04:25:52.054Z,51.216297
2022-09-20T04:26:52.041Z,51.216030
2022-09-20T04:27:52.035Z,51.216011
2022-09-20T04:28:52.028Z,51.216198
2022-09-20T04:29:52.031Z,51.216244
2022-09-20T04:30:51.998Z,51.216076
2022-09-20T04:31:54.057Z,51.216080
2022-09-20T04:32:52.995Z,51.216038
2022-09-20T04:33:51.986Z,51.216179
2022-09-20T04:34:51.994Z,51.216118
2022-09-20T04:35:51.976Z,51.216057
2022-09-20T04:36:51.974Z,51.216068
2022-09-20T04:37:51.960Z,51.216148
2022-09-20T04:38:51.961Z,51.216000
2022-09-20T04:39:51.967Z,51.216141
2022-09-20T04:40:51.947Z,51.216103
2022-09-20T04:41:51.939Z,51.216160
2022-09-20T04:42:51.931Z,51.216106
2022-09-20T04:43:51.926Z,51.216228
2022-09-20T04:44:51.947Z,51.216133
2022-09-20T04:45:51.956Z,51.216099
2022-09-20T04:46:55.883Z,51.216068
2022-09-20T04:47:52.895Z,51.216068
2022-09-20T04:48:51.914Z,51.215988
2022-09-20T04:49:51.903Z,51.215977
2022-09-20T04:50:51.888Z,51.216114
2022-09-20T04:51:51.867Z,51.216080
2022-09-20T04:52:51.863Z,51.216049
2022-09-20T04:53:51.856Z,51.216061
2022-09-20T04:54:51.843Z,51.215965
2022-09-20T04:55:51.855Z,51.216000
2022-09-20T04:56:51.860Z,51.216068
2022-09-20T04:57:51.819Z,51.216110
2022-09-20T04:58:52.823Z,51.216118
2022-09-20T04:59:51.822Z,51.216076
2022-09-20T05:00:51.863Z,51.216259
2022-09-20T05:01:51.839Z,51.216183
2022-09-20T05:02:51.794Z,51.216015
2022-09-20T05:03:51.785Z,51.215984
2022-09-20T05:04:51.882Z,51.216087
2022-09-20T05:05:51.818Z,51.216080
2022-09-20T05:06:51.765Z,51.215996
2022-09-20T05:07:51.750Z,51.215874
2022-09-20T05:08:54.230Z,51.215981
2022-09-20T05:09:52.748Z,51.215965
2022-09-20T05:10:51.741Z,51.215996
2022-09-20T05:11:51.738Z,51.215996
2022-09-20T05:12:52.729Z,51.216030
2022-09-20T05:13:51.727Z,51.216011
2022-09-20T05:14:51.718Z,51.215939
2022-09-20T05:15:51.708Z,51.215977
2022-09-20T05:16:51.747Z,51.216015
2022-09-20T05:17:51.704Z,51.216026
2022-09-20T05:18:51.694Z,51.215996
2022-09-20T05:19:51.683Z,51.216022
2022-09-20T05:20:51.683Z,51.215965
2022-09-20T05:21:51.687Z,51.216045
2022-09-20T05:22:51.664Z,51.216106
2022-09-20T05:23:51.658Z,51.216053
2022-09-20T05:24:51.655Z,51.216099
2022-09-20T05:25:51.642Z,51.216156
2022-09-20T05:26:51.659Z,51.216156
2022-09-20T05:27:51.634Z,51.216255
2022-09-20T05:28:51.610Z,51.216175
2022-09-20T05:29:51.623Z,51.216152
2022-09-20T05:30:51.614Z,51.216175
2022-09-20T05:31:51.704Z,51.216045
2022-09-20T05:32:51.602Z,51.216064
2022-09-20T05:33:51.590Z,51.215992
2022-09-20T05:34:51.590Z,51.215931
2022-09-20T05:35:51.591Z,51.215923
2022-09-20T05:36:51.590Z,51.216022
2022-09-20T05:37:51.570Z,51.216053
2022-09-20T05:38:51.559Z,51.216099
2022-09-20T05:39:51.554Z,51.216152
2022-09-20T05:40:51.583Z,51.216106
2022-09-20T05:41:51.547Z,51.216061
2022-09-20T05:42:51.554Z,51.216015
2022-09-20T05:43:51.530Z,51.216118
2022-09-20T05:44:51.521Z,51.216061
2022-09-20T05:45:51.538Z,51.216217
2022-09-20T05:46:51.514Z,51.216217
2022-09-20T05:47:51.513Z,51.216187
2022-09-20T05:48:51.495Z,51.216167
2022-09-20T05:49:51.482Z,51.216209
2022-09-20T05:50:53.847Z,51.216194
2022-09-20T05:51:51.478Z,51.216209
2022-09-20T05:52:51.494Z,51.216240
2022-09-20T05:53:51.462Z,51.216106
2022-09-20T05:54:51.454Z,51.216148
2022-09-20T05:55:51.454Z,51.216175
2022-09-20T05:56:51.442Z,51.216049
2022-09-20T05:57:51.450Z,51.216125
2022-09-20T05:58:51.429Z,51.216167
2022-09-20T05:59:51.427Z,51.216156
2022-09-20T06:00:51.449Z,51.216183
2022-09-20T06:01:51.406Z,51.216175
2022-09-20T06:02:51.415Z,51.216106
2022-09-20T06:03:51.390Z,51.216114
2022-09-20T06:04:52.392Z,51.216263
2022-09-20T06:05:51.383Z,51.216076
2022-09-20T06:06:51.375Z,51.216084
2022-09-20T06:07:51.393Z,51.216244
2022-09-20T06:08:51.365Z,51.216129
2022-09-20T06:09:51.360Z,51.216091
2022-09-20T06:10:51.347Z,51.216137
2022-09-20T06:11:51.347Z,51.216118
2022-09-20T06:12:51.322Z,51.216213
2022-09-20T06:13:51.353Z,51.216305
2022-09-20T06:14:51.326Z,51.216290
2022-09-20T06:15:51.313Z,51.216278
2022-09-20T06:16:51.344Z,51.216217
2022-09-20T06:17:51.346Z,51.216297
2022-09-20T06:18:51.305Z,51.216209
2022-09-20T06:19:51.290Z,51.216133
2022-09-20T06:20:51.282Z,51.216061
2022-09-20T06:21:51.266Z,51.216000
2022-09-20T06:22:51.261Z,51.216076
2022-09-20T06:23:51.266Z,51.216022
2022-09-20T06:24:51.270Z,51.216099
2022-09-20T06:25:51.252Z,51.216141
2022-09-20T06:26:51.243Z,51.216133
2022-09-20T06:27:51.230Z,51.216087
2022-09-20T06:28:54.143Z,51.216095
2022-09-20T06:29:52.238Z,51.216099
2022-09-20T06:30:51.245Z,51.216152
2022-09-20T06:31:51.218Z,51.216175
2022-09-20T06:32:51.202Z,51.216160
2022-09-20T06:33:51.186Z,51.216141
2022-09-20T06:34:51.198Z,51.216141
2022-09-20T06:35:52.386Z,51.216137
2022-09-20T06:36:51.170Z,51.216221
2022-09-20T06:37:51.850Z,51.216152
2022-09-20T06:38:51.159Z,51.216003
2022-09-20T06:39:51.150Z,51.216049
2022-09-20T06:40:51.151Z,51.216122
2022-09-20T06:41:51.139Z,51.216141
2022-09-20T06:42:51.134Z,51.216042
2022-09-20T06:43:51.122Z,51.216064
2022-09-20T06:44:51.133Z,51.216045
2022-09-20T06:45:51.178Z,51.216042
2022-09-20T06:46:51.101Z,51.216068
2022-09-20T06:47:51.095Z,51.216106
2022-09-20T06:48:51.087Z,51.216129
2022-09-20T06:49:51.150Z,51.216106
2022-09-20T06:50:51.094Z,51.216061
2022-09-20T06:51:51.076Z,51.216175
2022-09-20T06:52:51.061Z,51.216209
2022-09-20T06:53:51.053Z,51.216179
2022-09-20T06:54:51.056Z,51.216175
2022-09-20T06:55:51.068Z,51.216042
2022-09-20T06:56:51.049Z,51.216076
2022-09-20T06:57:51.031Z,51.216072
2022-09-20T06:58:51.022Z,51.216072
2022-09-20T06:59:51.017Z,51.216236
2022-09-20T07:00:51.049Z,51.216145
2022-09-20T07:01:51.078Z,51.216202
2022-09-20T07:02:50.999Z,51.216064
2022-09-20T07:03:50.993Z,51.216171
2022-09-20T07:04:50.989Z,51.216137
2022-09-20T07:05:50.977Z,51.216152
2022-09-20T07:06:50.986Z,51.216156
2022-09-20T07:07:50.962Z,51.216209
2022-09-20T07:08:50.962Z,51.216156
2022-09-20T07:09:50.957Z,51.216030
2022-09-20T07:10:50.943Z,51.216038
2022-09-20T07:11:50.946Z,51.216141
2022-09-20T07:12:50.937Z,51.216152
2022-09-20T07:13:50.921Z,51.216198
2022-09-20T07:14:50.917Z,51.216228
2022-09-20T07:15:50.919Z,51.216110
2022-09-20T07:16:50.940Z,51.216099
2022-09-20T07:17:50.902Z,51.216072
2022-09-20T07:18:50.901Z,51.216099
2022-09-20T07:19:51.885Z,51.216072
2022-09-20T07:20:50.877Z,51.216072
2022-09-20T07:21:50.885Z,51.216099
2022-09-20T07:22:50.896Z,51.216114
2022-09-20T07:23:50.862Z,51.216129
2022-09-20T07:24:50.857Z,51.216095
2022-09-20T07:25:50.849Z,51.216099
2022-09-20T07:26:50.846Z,51.216019
2022-09-20T07:27:50.862Z,51.216076
2022-09-20T07:28:50.837Z,51.216072
2022-09-20T07:29:50.837Z,51.216095
2022-09-20T07:30:50.821Z,51.216045
2022-09-20T07:31:50.905Z,51.216106
2022-09-20T07:32:50.818Z,51.216110
2022-09-20T07:33:50.818Z,51.216228
2022-09-20T07:34:50.806Z,51.216152
2022-09-20T07:35:50.785Z,51.216061
2022-09-20T07:36:50.781Z,51.216019
2022-09-20T07:37:50.789Z,51.216061
2022-09-20T07:38:50.769Z,51.216049
2022-09-20T07:39:50.777Z,51.216080
2022-09-20T07:40:50.774Z,51.216099
2022-09-20T07:41:50.768Z,51.216091
2022-09-20T07:42:55.985Z,51.216129
2022-09-20T07:43:51.737Z,51.216141
2022-09-20T07:44:50.738Z,51.216209
2022-09-20T07:45:50.754Z,51.216259
2022-09-20T07:46:50.725Z,51.216328
2022-09-20T07:47:50.740Z,51.216122
2022-09-20T07:48:50.709Z,51.216022
2022-09-20T07:49:50.705Z,51.216084
2022-09-20T07:50:50.673Z,51.216034
2022-09-20T07:51:50.696Z,51.216053
2022-09-20T07:52:50.700Z,51.216122
2022-09-20T07:53:50.673Z,51.216099
2022-09-20T07:54:50.669Z,51.216228
2022-09-20T07:55:50.665Z,51.216145
2022-09-20T07:56:50.653Z,51.216011
2022-09-20T07:57:50.654Z,51.216087
2022-09-20T07:58:52.577Z,51.216038
2022-09-20T07:59:50.647Z,51.215855
2022-09-20T08:00:50.700Z,51.215881
2022-09-20T08:01:50.664Z,51.215992
2022-09-20T08:02:50.625Z,51.215992
2022-09-20T08:03:50.643Z,51.215900
2022-09-20T08:04:50.610Z,51.215897
2022-09-20T08:05:50.609Z,51.215881
2022-09-20T08:06:50.599Z,51.215889
2022-09-20T08:07:50.589Z,51.215923
2022-09-20T08:08:50.589Z,51.216000
2022-09-20T08:09:50.566Z,51.216114
2022-09-20T08:10:50.577Z,51.216164
2022-09-20T08:11:50.565Z,51.216164
2022-09-20T08:14:08.864Z,51.216099
2022-09-20T08:14:52.557Z,51.216118
2022-09-20T08:15:50.528Z,51.216122
2022-09-20T08:16:50.621Z,51.216026
2022-09-20T08:17:50.537Z,51.215954
2022-09-20T08:18:50.532Z,51.216038
2022-09-20T08:19:50.528Z,51.215973
2022-09-20T08:20:50.504Z,51.216019
2022-09-20T08:21:50.500Z,51.216080
2022-09-20T08:23:12.734Z,51.216061
2022-09-20T08:23:51.512Z,51.216072
2022-09-20T08:24:50.477Z,51.216038
2022-09-20T08:25:50.462Z,51.216015
2022-09-20T08:26:50.472Z,51.216049
2022-09-20T08:27:50.451Z,51.215973
2022-09-20T08:28:50.453Z,51.216007
2022-09-20T08:29:50.477Z,51.215988
2022-09-20T08:30:50.433Z,51.216034
2022-09-20T08:31:50.464Z,51.216072
2022-09-20T08:32:50.433Z,51.215992
2022-09-20T08:33:50.427Z,51.216129
2022-09-20T08:34:50.536Z,51.216045
2022-09-20T08:35:50.409Z,51.216106
2022-09-20T08:36:50.404Z,51.216068
2022-09-20T08:37:50.684Z,51.216087
2022-09-20T08:39:59.697Z,51.216084
2022-09-20T08:40:52.377Z,51.216045
2022-09-20T08:41:50.373Z,51.216053
2022-09-20T08:42:50.364Z,51.215984
2022-09-20T08:43:50.362Z,51.215992
2022-09-20T08:44:57.738Z,51.216019
2022-09-20T08:45:52.418Z,51.216137
2022-09-20T08:46:50.336Z,51.216080
2022-09-20T08:47:50.329Z,51.216087
2022-09-20T08:48:50.328Z,51.216103
2022-09-20T08:49:56.395Z,51.216110
2022-09-20T08:50:51.300Z,51.216106
2022-09-20T08:51:50.302Z,51.216095
2022-09-20T08:52:50.296Z,51.216084
2022-09-20T08:53:50.284Z,51.216057
2022-09-20T08:54:50.296Z,51.215984
2022-09-20T08:55:50.265Z,51.216068
2022-09-20T08:56:50.273Z,51.216045
2022-09-20T08:57:50.264Z,51.216061
2022-09-20T08:58:50.237Z,51.216087
2022-09-20T08:59:50.244Z,51.215965
2022-09-20T09:00:50.268Z,51.216019
2022-09-20T09:01:50.228Z,51.216118
2022-09-20T09:02:50.224Z,51.216251
2022-09-20T09:03:50.221Z,51.216171
2022-09-20T09:04:50.218Z,51.216080
2022-09-20T09:05:50.214Z,51.216015
2022-09-20T09:06:50.200Z,51.216015
2022-09-20T09:07:50.216Z,51.216045
2022-09-20T09:08:50.184Z,51.216042
2022-09-20T09:09:50.180Z,51.215969
2022-09-20T09:10:50.171Z,51.215874
2022-09-20T09:11:50.156Z,51.215977
2022-09-20T09:12:50.173Z,51.216022
2022-09-20T09:13:50.149Z,51.216076
2022-09-20T09:14:50.148Z,51.216061
2022-09-20T09:15:50.191Z,51.216110
2022-09-20T09:16:50.145Z,51.216091
2022-09-20T09:17:50.128Z,51.216156
2022-09-20T09:18:50.125Z,51.216122
2022-09-20T09:19:50.112Z,51.216103
2022-09-20T09:20:50.092Z,51.216057
2022-09-20T09:21:50.097Z,51.216034
2022-09-20T09:22:50.092Z,51.216026
2022-09-20T09:23:50.084Z,51.216022
2022-09-20T09:24:50.081Z,51.216007
2022-09-20T09:25:50.072Z,51.216084
2022-09-20T09:26:50.071Z,51.216137
2022-09-20T09:27:50.052Z,51.216152
2022-09-20T09:28:50.063Z,51.216080
2022-09-20T09:29:50.044Z,51.216038
2022-09-20T09:30:50.029Z,51.216030
2022-09-20T09:31:50.155Z,51.216019
2022-09-20T09:32:50.032Z,51.216064
2022-09-20T09:33:50.032Z,51.216042
2022-09-20T09:34:50.036Z,51.216045
2022-09-20T09:35:50.011Z,51.216141
2022-09-20T09:36:50.004Z,51.216125
2022-09-20T09:37:49.995Z,51.216049
2022-09-20T09:38:51.015Z,51.216072
2022-09-20T09:39:49.994Z,51.216114
2022-09-20T09:40:49.988Z,51.216019
2022-09-20T09:41:49.982Z,51.215977
2022-09-20T09:42:49.967Z,51.216003
2022-09-20T09:43:49.961Z,51.216133
2022-09-20T09:44:49.977Z,51.216198
2022-09-20T09:45:50.043Z,51.216084
2022-09-20T09:46:49.946Z,51.216129
2022-09-20T09:47:49.944Z,51.216167
2022-09-20T09:48:50.011Z,51.216095
2022-09-20T09:49:49.943Z,51.216045
2022-09-20T09:50:49.920Z,51.216080
2022-09-20T09:51:49.921Z,51.216053
2022-09-20T09:52:49.904Z,51.216038
2022-09-20T09:53:49.898Z,51.216167
2022-09-20T09:54:49.902Z,51.216087
2022-09-20T09:55:49.882Z,51.216206
2022-09-20T09:56:49.880Z,51.216118
2022-09-20T09:57:49.876Z,51.216091
2022-09-20T09:58:49.863Z,51.216011
2022-09-20T09:59:49.854Z,51.216106
2022-09-20T10:00:49.909Z,51.216091
2022-09-20T10:01:49.958Z,51.216164
2022-09-20T10:02:49.864Z,51.216236
2022-09-20T10:03:49.827Z,51.216274
2022-09-20T10:04:49.826Z,51.216415
2022-09-20T10:05:49.827Z,51.216026
2022-09-20T10:06:52.330Z,51.216091
2022-09-20T10:07:50.800Z,51.216015
2022-09-20T10:08:49.782Z,51.215935
2022-09-20T10:09:49.790Z,51.215919
2022-09-20T10:10:49.774Z,51.216076
2022-09-20T10:11:49.794Z,51.216000
2022-09-20T10:12:49.762Z,51.216080
2022-09-20T10:13:49.758Z,51.215900
2022-09-20T10:14:49.759Z,51.215984
2022-09-20T10:15:49.766Z,51.215794
2022-09-20T10:16:49.798Z,51.215958
2022-09-20T10:17:49.732Z,51.215950
2022-09-20T10:18:49.726Z,51.216103
2022-09-20T10:19:49.707Z,51.216244
2022-09-20T10:20:50.754Z,51.216171
2022-09-20T10:21:49.703Z,51.216087
2022-09-20T10:23:14.729Z,51.216148
2022-09-20T10:24:03.146Z,51.215912
2022-09-20T10:24:51.828Z,51.215797
2022-09-20T10:25:50.783Z,51.215916
2022-09-20T10:26:50.702Z,51.215698
2022-09-20T10:27:49.702Z,51.215714
2022-09-20T10:28:49.663Z,51.215755
2022-09-20T10:29:49.658Z,51.215786
2022-09-20T10:30:49.692Z,51.215721
2022-09-20T10:31:49.642Z,51.216030
2022-09-20T10:32:49.659Z,51.216103
2022-09-20T10:33:49.626Z,51.216198
2022-09-20T10:34:49.634Z,51.216164
2022-09-20T10:35:49.610Z,51.216137
2022-09-20T10:36:50.610Z,51.216202
2022-09-20T10:37:49.697Z,51.216206
2022-09-20T10:38:49.642Z,51.216251
2022-09-20T10:39:49.599Z,51.216141
2022-09-20T10:40:49.595Z,51.216072
2022-09-20T10:41:49.578Z,51.216026
2022-09-20T10:42:49.570Z,51.216133
2022-09-20T10:43:49.591Z,51.216293
2022-09-20T10:44:49.554Z,51.216236
2022-09-20T10:46:27.915Z,51.216225
2022-09-20T10:46:51.646Z,51.215946
2022-09-20T10:47:49.547Z,51.215916
2022-09-20T10:48:49.543Z,51.215973
2022-09-20T10:49:50.872Z,51.216057
2022-09-20T10:50:49.523Z,51.215923
2022-09-20T10:51:49.511Z,51.216049
2022-09-20T10:52:49.504Z,51.216133
2022-09-20T10:53:49.518Z,51.216148
2022-09-20T10:54:49.494Z,51.216194
2022-09-20T10:55:49.488Z,51.216118
2022-09-20T10:56:49.487Z,51.216167
2022-09-20T10:57:49.474Z,51.216221
2022-09-20T10:58:49.487Z,51.216167
2022-09-20T10:59:49.467Z,51.216206
2022-09-20T11:00:49.487Z,51.216286
2022-09-20T11:01:49.518Z,51.216209
2022-09-20T11:02:49.434Z,51.216217
2022-09-20T11:03:49.438Z,51.216160
2022-09-20T11:04:49.451Z,51.216160
2022-09-20T11:05:49.426Z,51.216190
2022-09-20T11:06:49.418Z,51.216202
2022-09-20T11:07:49.487Z,51.216148
2022-09-20T11:08:49.394Z,51.216042
2022-09-20T11:09:49.410Z,51.215958
2022-09-20T11:10:49.385Z,51.215912
2022-09-20T11:11:49.382Z,51.215923
2022-09-20T11:12:49.374Z,51.215958
2022-09-20T11:13:49.375Z,51.216007
2022-09-20T11:14:49.378Z,51.216171
2022-09-20T11:15:49.370Z,51.216145
2022-09-20T11:16:49.411Z,51.215958
2022-09-20T11:17:49.350Z,51.216057
2022-09-20T11:18:49.341Z,51.216217
2022-09-20T11:19:49.341Z,51.216068
2022-09-20T11:20:49.339Z,51.215893
2022-09-20T11:21:49.321Z,51.215702
2022-09-20T11:22:49.308Z,51.215931
2022-09-20T11:23:49.301Z,51.215691
2022-09-20T11:24:49.297Z,51.215759
2022-09-20T11:25:49.302Z,51.216015
2022-09-20T11:26:49.329Z,51.216419